createdAt,value
2019-03-20T00:00:42.473Z,4.47
2019-03-20T00:03:12.039Z,5.00
2019-03-20T00:05:42.160Z,3.97
2019-03-20T00:08:11.619Z,4.10
2019-03-20T00:10:41.125Z,4.23
2019-03-20T00:13:10.587Z,4.17
2019-03-20T00:15:40.057Z,4.00
2019-03-20T00:18:09.546Z,3.73
2019-03-20T00:20:39.040Z,4.37
2019-03-20T00:23:08.533Z,4.87
2019-03-20T00:25:38.044Z,3.90
2019-03-20T00:28:07.500Z,4.40
2019-03-20T00:30:36.966Z,4.37
2019-03-20T00:33:06.478Z,4.23
2019-03-20T00:35:36.011Z,4.50
2019-03-20T00:38:06.095Z,5.70
2019-03-20T00:40:35.558Z,4.63
2019-03-20T00:43:05.057Z,4.97
2019-03-20T00:45:34.519Z,4.53
2019-03-20T00:48:04.047Z,4.73
2019-03-20T00:50:33.542Z,4.83
2019-03-20T00:53:03.036Z,4.90
2019-03-20T00:55:32.583Z,4.97
2019-03-20T00:58:02.099Z,4.43
2019-03-20T01:00:31.559Z,5.43
2019-03-20T01:03:01.053Z,4.43
2019-03-20T01:05:30.517Z,4.30
2019-03-20T01:08:00.017Z,4.50
2019-03-20T01:10:29.505Z,4.97
2019-03-20T01:12:59.147Z,4.37
2019-03-20T01:15:28.640Z,3.90
2019-03-20T01:17:58.117Z,3.37
2019-03-20T01:20:27.678Z,4.93
2019-03-20T01:22:57.138Z,4.60
2019-03-20T01:25:26.634Z,4.20
2019-03-20T01:27:56.108Z,4.43
2019-03-20T01:30:32.270Z,4.40
2019-03-20T01:33:03.139Z,3.77
2019-03-20T01:35:32.601Z,4.27
2019-03-20T01:38:02.083Z,4.27
2019-03-20T01:40:31.687Z,4.43
2019-03-20T01:43:01.146Z,4.10
2019-03-20T01:45:30.711Z,3.53
2019-03-20T01:48:00.196Z,4.10
2019-03-20T01:50:29.660Z,4.10
2019-03-20T01:52:59.157Z,4.10
2019-03-20T01:55:28.607Z,4.27
2019-03-20T01:57:58.149Z,3.50
2019-03-20T02:00:28.061Z,3.73
2019-03-20T02:02:57.551Z,3.50
2019-03-20T02:05:35.045Z,3.63
2019-03-20T02:07:58.277Z,3.90
2019-03-20T02:10:27.922Z,4.27
2019-03-20T02:12:58.752Z,4.20
2019-03-20T02:15:37.925Z,4.23
2019-03-20T02:17:59.715Z,4.50
2019-03-20T02:20:29.221Z,4.60
2019-03-20T02:22:58.732Z,4.63
2019-03-20T02:25:28.235Z,3.67
2019-03-20T02:27:57.797Z,4.17
2019-03-20T02:30:27.272Z,4.40
2019-03-20T02:32:56.801Z,4.00
2019-03-20T02:35:26.305Z,3.10
2019-03-20T02:37:55.826Z,3.50
2019-03-20T02:40:25.320Z,3.90
2019-03-20T02:42:54.819Z,3.07
2019-03-20T02:45:24.376Z,3.30
2019-03-20T02:47:53.884Z,3.70
2019-03-20T02:50:23.402Z,3.70
2019-03-20T02:52:52.859Z,3.73
2019-03-20T02:55:22.364Z,4.13
2019-03-20T02:57:51.860Z,3.53
2019-03-20T03:00:21.749Z,3.93
2019-03-20T03:02:51.323Z,4.00
2019-03-20T03:05:20.897Z,3.87
2019-03-20T03:07:50.409Z,3.70
2019-03-20T03:10:19.954Z,3.63
2019-03-20T03:12:49.443Z,3.47
2019-03-20T03:15:18.965Z,3.50
2019-03-20T03:17:48.459Z,3.17
2019-03-20T03:20:17.999Z,3.60
2019-03-20T03:22:47.497Z,3.20
2019-03-20T03:25:17.001Z,3.53
2019-03-20T03:27:46.519Z,3.10
2019-03-20T03:30:16.258Z,2.40
2019-03-20T03:32:46.346Z,2.50
2019-03-20T03:35:19.159Z,2.70
2019-03-20T03:37:47.326Z,2.40
2019-03-20T03:40:16.966Z,2.90
2019-03-20T03:42:46.479Z,2.83
2019-03-20T03:45:16.384Z,3.17
2019-03-20T03:47:46.085Z,2.40
2019-03-20T03:50:15.712Z,2.97
2019-03-20T03:52:45.223Z,2.80
2019-03-20T03:55:15.269Z,2.70
2019-03-20T03:57:45.789Z,2.50
2019-03-20T04:00:15.901Z,1.97
2019-03-20T04:02:45.440Z,2.93
2019-03-20T04:05:15.426Z,2.47
2019-03-20T04:07:44.961Z,2.77
2019-03-20T04:10:14.484Z,3.20
2019-03-20T04:12:44.089Z,3.20
2019-03-20T04:15:14.140Z,2.50
2019-03-20T04:17:43.599Z,2.70
2019-03-20T04:20:13.726Z,2.40
2019-03-20T04:22:43.226Z,3.23
2019-03-20T04:25:12.984Z,3.73
2019-03-20T04:27:42.474Z,3.07
2019-03-20T04:30:12.567Z,2.90
2019-03-20T04:32:42.108Z,3.40
2019-03-20T04:35:12.423Z,3.47
2019-03-20T04:37:41.920Z,3.50
2019-03-20T04:40:11.590Z,2.57
2019-03-20T04:42:41.101Z,2.43
2019-03-20T04:45:12.630Z,3.10
2019-03-20T04:47:42.320Z,2.90
2019-03-20T04:50:13.820Z,2.40
2019-03-20T04:52:43.339Z,3.83
2019-03-20T04:55:12.834Z,2.40
2019-03-20T04:57:42.448Z,2.70
2019-03-20T05:00:13.821Z,2.70
2019-03-20T05:02:43.363Z,2.53
2019-03-20T05:05:12.869Z,2.63
2019-03-20T05:07:42.379Z,2.10
2019-03-20T05:10:12.731Z,2.20
2019-03-20T05:12:42.255Z,2.40
2019-03-20T05:15:12.116Z,2.97
2019-03-20T05:17:41.614Z,1.70
2019-03-20T05:20:12.592Z,2.67
2019-03-20T05:22:42.012Z,2.13
2019-03-20T05:25:11.727Z,2.50
2019-03-20T05:27:41.284Z,2.47
2019-03-20T05:30:11.908Z,2.23
2019-03-20T05:32:41.449Z,2.90
2019-03-20T05:35:11.053Z,2.43
2019-03-20T05:37:40.549Z,2.13
2019-03-20T05:40:11.337Z,2.17
2019-03-20T05:42:40.840Z,2.90
2019-03-20T05:45:11.761Z,2.70
2019-03-20T05:47:41.471Z,2.90
2019-03-20T05:50:11.992Z,2.40
2019-03-20T05:52:41.622Z,3.17
2019-03-20T05:55:11.334Z,3.77
2019-03-20T05:57:40.829Z,2.07
2019-03-20T06:00:12.707Z,2.80
2019-03-20T06:02:42.204Z,3.60
2019-03-20T06:05:11.697Z,3.50
2019-03-20T06:07:41.233Z,2.83
2019-03-20T06:10:12.157Z,3.13
2019-03-20T06:12:41.817Z,3.20
2019-03-20T06:15:11.805Z,2.90
2019-03-20T06:17:41.271Z,3.40
2019-03-20T06:20:10.931Z,3.50
2019-03-20T06:22:40.468Z,3.07
2019-03-20T06:25:10.082Z,2.80
2019-03-20T06:27:39.585Z,2.17
2019-03-20T06:30:11.560Z,1.87
2019-03-20T06:32:41.111Z,2.90
2019-03-20T06:35:11.019Z,2.27
2019-03-20T06:37:40.566Z,2.90
2019-03-20T06:40:10.625Z,2.00
2019-03-20T06:42:40.123Z,2.63
2019-03-20T06:45:10.471Z,2.37
2019-03-20T06:47:39.995Z,2.10
2019-03-20T06:50:12.157Z,2.53
2019-03-20T06:52:41.659Z,2.70
2019-03-20T06:55:11.304Z,2.67
2019-03-20T06:57:40.795Z,1.10
2019-03-20T07:00:54.331Z,1.80
2019-03-20T07:03:33.730Z,1.77
2019-03-20T07:06:36.846Z,3.50
2019-03-20T07:09:16.882Z,2.73
2019-03-20T07:11:46.506Z,3.30
2019-03-20T07:14:16.006Z,3.30
2019-03-20T07:16:45.518Z,3.47
2019-03-20T07:19:15.047Z,4.00
2019-03-20T07:21:44.554Z,3.63
2019-03-20T07:24:14.031Z,3.73
2019-03-20T07:26:43.566Z,3.80
2019-03-20T07:29:13.037Z,4.40
2019-03-20T07:31:42.555Z,4.17
2019-03-20T07:34:12.064Z,4.73
2019-03-20T07:36:41.585Z,3.80
2019-03-20T07:39:11.107Z,5.03
2019-03-20T07:41:40.626Z,5.17
2019-03-20T07:44:10.096Z,8.07
2019-03-20T07:46:39.650Z,4.87
2019-03-20T07:49:09.147Z,6.33
2019-03-20T07:51:38.739Z,5.37
2019-03-20T07:54:08.269Z,3.13
2019-03-20T07:56:37.838Z,5.50
2019-03-20T07:59:07.386Z,4.87
2019-03-20T08:01:36.931Z,5.47
2019-03-20T08:04:06.463Z,4.93
2019-03-20T08:06:35.974Z,5.47
2019-03-20T08:09:07.938Z,5.53
2019-03-20T08:11:37.450Z,5.60
2019-03-20T08:14:06.983Z,5.13
2019-03-20T08:16:37.018Z,6.27
2019-03-20T08:19:06.524Z,5.03
2019-03-20T08:21:36.056Z,4.13
2019-03-20T08:24:05.544Z,5.00
2019-03-20T08:26:35.095Z,6.23
2019-03-20T08:29:04.709Z,5.57
2019-03-20T08:31:34.220Z,5.23
2019-03-20T08:34:03.717Z,7.50
2019-03-20T08:36:33.224Z,5.67
2019-03-20T08:39:02.725Z,2.93
2019-03-20T08:41:32.275Z,5.90
2019-03-20T08:44:01.801Z,3.40
2019-03-20T08:46:32.571Z,6.20
2019-03-20T08:49:02.290Z,6.70
2019-03-20T08:51:31.883Z,5.73
2019-03-20T08:54:01.422Z,6.07
2019-03-20T08:56:30.930Z,6.30
2019-03-20T08:59:00.508Z,5.83
2019-03-20T09:01:30.022Z,5.37
2019-03-20T09:03:59.539Z,5.58
2019-03-20T09:06:29.045Z,5.55
2019-03-20T09:08:58.638Z,5.58
2019-03-20T09:11:28.176Z,4.58
2019-03-20T09:13:57.761Z,4.97
2019-03-20T09:16:27.400Z,5.72
2019-03-20T09:18:57.014Z,5.72
2019-03-20T09:21:26.598Z,6.03
2019-03-20T09:23:56.096Z,5.03
2019-03-20T09:26:25.662Z,5.85
2019-03-20T09:28:55.213Z,3.98
2019-03-20T09:31:24.732Z,5.00
2019-03-20T09:33:54.325Z,5.00
2019-03-20T10:58:59.399Z,4.65
2019-03-20T11:01:28.993Z,5.62
2019-03-20T11:03:58.499Z,4.50
2019-03-20T11:16:40.764Z,4.40
2019-03-20T11:19:10.284Z,4.72
2019-03-20T11:21:39.871Z,4.12
2019-03-20T11:24:09.357Z,4.97
2019-03-20T12:09:41.084Z,3.58
2019-03-20T12:12:06.967Z,3.75
2019-03-20T12:14:38.546Z,3.83
2019-03-20T12:17:26.322Z,3.47
2019-03-20T12:20:56.344Z,3.15
2019-03-20T12:24:29.726Z,3.27
2019-03-20T12:27:00.879Z,3.37
2019-03-20T12:29:30.417Z,3.47
2019-03-20T12:31:59.953Z,3.75
2019-03-20T12:34:29.421Z,3.33
2019-03-20T12:36:58.965Z,3.75
2019-03-20T12:39:28.457Z,3.90
2019-03-20T12:41:58.267Z,3.70
2019-03-20T12:44:27.737Z,4.12
2019-03-20T12:46:57.230Z,3.27
2019-03-20T12:49:26.703Z,4.25
2019-03-20T12:51:56.217Z,4.60
2019-03-20T12:54:25.767Z,3.75
2019-03-20T12:56:55.535Z,4.70
2019-03-20T12:59:25.798Z,4.25
2019-03-20T13:01:55.282Z,3.95
2019-03-20T13:04:24.813Z,3.75
2019-03-20T13:06:54.317Z,4.40
2019-03-20T13:09:23.991Z,4.25
2019-03-20T13:11:53.515Z,5.03
2019-03-20T13:14:23.046Z,4.92
2019-03-20T13:16:52.519Z,4.35
2019-03-20T13:19:22.028Z,4.62
2019-03-20T13:21:51.517Z,4.75
2019-03-20T13:24:21.038Z,4.50
2019-03-20T13:26:50.577Z,5.40
2019-03-20T13:29:20.043Z,4.00
2019-03-20T13:31:49.571Z,4.80
2019-03-20T13:34:19.060Z,4.90
2019-03-20T13:36:48.583Z,4.72
2019-03-20T13:39:18.089Z,5.17
2019-03-20T13:41:47.694Z,4.60
2019-03-20T13:44:17.213Z,4.47
2019-03-20T13:46:46.698Z,5.12
2019-03-20T13:49:16.234Z,5.70
2019-03-20T13:51:45.733Z,4.70
2019-03-20T13:54:15.344Z,5.35
2019-03-20T13:56:44.799Z,5.05
2019-03-20T13:59:14.329Z,4.33
2019-03-20T14:01:43.923Z,4.50
2019-03-20T14:04:13.444Z,4.45
2019-03-20T14:06:42.973Z,3.90
2019-03-20T14:09:12.471Z,4.62
2019-03-20T14:11:42.065Z,4.65
2019-03-20T14:14:11.608Z,5.42
2019-03-20T14:16:41.083Z,4.28
2019-03-20T14:19:10.715Z,5.15
2019-03-20T14:21:40.336Z,5.35
2019-03-20T14:24:09.823Z,6.37
2019-03-20T14:26:39.321Z,5.25
2019-03-20T14:29:08.853Z,5.12
2019-03-20T14:31:38.360Z,4.53
2019-03-20T14:34:07.966Z,3.92
2019-03-20T14:36:37.475Z,4.53
2019-03-20T14:39:08.770Z,3.98
2019-03-20T14:41:38.381Z,4.70
2019-03-20T14:44:07.856Z,4.85
2019-03-20T14:46:37.362Z,4.53
2019-03-20T14:49:06.899Z,5.45
2019-03-20T14:51:36.442Z,3.27
2019-03-20T14:54:05.945Z,4.65
2019-03-20T14:56:35.447Z,4.58
2019-03-20T14:59:04.958Z,4.70
2019-03-20T15:01:34.486Z,4.70
2019-03-20T15:04:03.968Z,4.85
2019-03-20T15:06:33.494Z,4.70
2019-03-20T15:09:03.061Z,4.90
2019-03-20T15:11:32.598Z,4.35
2019-03-20T15:14:02.088Z,5.00
2019-03-20T15:16:31.608Z,5.35
2019-03-20T15:19:01.154Z,3.98
2019-03-20T15:21:30.628Z,3.02
2019-03-20T15:24:00.197Z,4.92
2019-03-20T15:26:29.603Z,4.20
2019-03-20T15:28:59.129Z,4.33
2019-03-20T15:31:28.614Z,4.72
2019-03-20T15:33:58.201Z,4.83
2019-03-20T15:36:27.736Z,4.35
2019-03-20T15:38:57.284Z,5.17
2019-03-20T15:41:26.774Z,4.80
2019-03-20T15:44:02.457Z,4.67
2019-03-20T15:46:28.434Z,4.25
2019-03-20T15:48:57.896Z,4.45
2019-03-20T15:51:27.398Z,4.00
2019-03-20T15:53:56.905Z,3.92
2019-03-20T15:56:26.409Z,3.70
2019-03-20T15:58:55.927Z,2.87
2019-03-20T16:01:25.465Z,4.15
2019-03-20T16:03:54.926Z,3.87
2019-03-20T16:06:27.118Z,3.83
2019-03-20T16:08:56.958Z,3.60
2019-03-20T16:11:26.655Z,3.60
2019-03-20T16:13:56.232Z,3.70
2019-03-20T16:16:25.811Z,3.15
2019-03-20T16:18:55.504Z,3.90
2019-03-20T16:21:25.059Z,2.92
2019-03-20T16:23:54.611Z,3.92
2019-03-20T16:26:24.286Z,3.62
2019-03-20T16:28:53.851Z,3.30
2019-03-20T16:31:23.418Z,3.10
2019-03-20T16:33:52.982Z,3.33
2019-03-20T16:36:22.608Z,4.17
2019-03-20T16:38:52.244Z,3.62
2019-03-20T16:41:21.880Z,4.03
2019-03-20T16:43:51.447Z,4.10
2019-03-20T16:46:21.041Z,3.72
2019-03-20T16:48:50.612Z,2.85
2019-03-20T16:51:20.193Z,3.98
2019-03-20T16:53:49.719Z,2.62
2019-03-20T16:56:19.342Z,3.77
2019-03-20T16:58:48.940Z,3.90
2019-03-20T17:01:18.462Z,3.67
2019-03-20T17:03:48.077Z,3.25
2019-03-20T17:06:17.715Z,3.77
2019-03-20T17:08:47.252Z,3.60
2019-03-20T17:11:26.332Z,3.22
2019-03-20T17:13:48.334Z,3.60
2019-03-20T17:16:17.887Z,3.60
2019-03-20T17:18:47.460Z,3.30
2019-03-20T17:21:17.187Z,3.85
2019-03-20T17:23:46.835Z,3.77
2019-03-20T17:26:16.417Z,4.05
2019-03-20T17:28:46.244Z,3.25
2019-03-20T17:31:15.865Z,3.40
2019-03-20T17:33:45.459Z,3.22
2019-03-20T17:36:14.950Z,4.28
2019-03-20T17:38:44.656Z,4.00
2019-03-20T17:42:12.239Z,3.92
2019-03-20T17:44:41.961Z,4.10
2019-03-20T17:47:11.634Z,5.20
2019-03-20T17:49:41.224Z,5.85
2019-03-20T17:52:10.758Z,4.60
2019-03-20T17:54:40.419Z,4.35
2019-03-20T17:57:10.046Z,4.40
2019-03-20T17:59:39.566Z,4.62
2019-03-20T18:02:09.054Z,4.17
2019-03-20T18:04:38.598Z,4.53
2019-03-20T18:07:08.210Z,4.92
2019-03-20T18:09:37.758Z,5.47
2019-03-20T18:12:07.326Z,5.87
2019-03-20T18:14:36.839Z,6.58
2019-03-20T18:17:06.381Z,5.63
2019-03-20T18:19:35.916Z,5.15
2019-03-20T18:22:05.562Z,4.17
2019-03-20T18:24:35.286Z,3.33
2019-03-20T18:27:05.365Z,4.00
2019-03-20T18:29:34.963Z,3.83
2019-03-20T18:32:04.490Z,4.20
2019-03-20T18:34:34.219Z,4.55
2019-03-20T18:37:03.734Z,4.45
2019-03-20T18:39:33.431Z,4.47
2019-03-20T18:42:04.578Z,3.92
2019-03-20T18:44:34.185Z,3.30
2019-03-20T18:47:03.794Z,4.40
2019-03-20T18:49:33.322Z,4.47
2019-03-20T18:52:02.863Z,3.85
2019-03-20T18:54:32.508Z,4.53
2019-03-20T18:57:02.047Z,3.95
2019-03-20T18:59:31.562Z,4.60
2019-03-20T19:02:01.186Z,3.90
2019-03-20T19:04:30.670Z,4.83
2019-03-20T19:07:00.273Z,4.28
2019-03-20T19:09:29.742Z,4.65
2019-03-20T19:12:08.169Z,4.53
2019-03-20T19:14:30.609Z,4.67
2019-03-20T19:17:00.208Z,4.33
2019-03-20T19:19:29.806Z,4.90
2019-03-20T19:21:59.386Z,4.30
2019-03-20T19:24:28.890Z,5.05
2019-03-20T19:26:58.447Z,4.30
2019-03-20T19:29:27.978Z,4.50
2019-03-20T19:31:57.466Z,4.55
2019-03-20T19:34:26.984Z,4.92
2019-03-20T19:36:56.485Z,5.30
2019-03-20T19:39:26.023Z,5.35
2019-03-20T19:41:55.547Z,5.30
2019-03-20T19:44:44.095Z,5.33
2019-03-20T19:47:13.583Z,4.80
2019-03-20T19:49:43.154Z,4.35
2019-03-20T19:52:12.743Z,5.40
2019-03-20T19:54:42.247Z,5.60
2019-03-20T19:57:11.790Z,4.87
2019-03-20T19:59:41.530Z,6.43
2019-03-20T20:02:11.081Z,4.67
2019-03-20T20:04:40.589Z,5.47
2019-03-20T20:07:10.103Z,5.35
2019-03-20T20:09:39.710Z,5.03
2019-03-20T20:12:09.382Z,5.93
2019-03-20T20:14:38.963Z,5.22
2019-03-20T20:17:09.452Z,5.15
2019-03-20T20:19:38.939Z,5.40
2019-03-20T20:22:08.598Z,5.33
2019-03-20T20:24:38.173Z,5.17
2019-03-20T20:27:07.718Z,5.20
2019-03-20T20:29:37.226Z,5.28
2019-03-20T20:32:06.827Z,4.90
2019-03-20T20:34:36.400Z,5.20
2019-03-20T20:37:06.793Z,5.83
2019-03-20T20:39:36.544Z,6.00
2019-03-20T20:42:06.027Z,5.90
2019-03-20T20:44:35.780Z,6.57
2019-03-20T20:47:05.394Z,5.37
2019-03-20T20:49:34.887Z,4.80
2019-03-20T20:52:04.373Z,6.57
2019-03-20T20:54:33.951Z,5.15
2019-03-20T20:57:03.446Z,5.67
2019-03-20T20:59:32.997Z,8.07
2019-03-20T21:02:02.508Z,6.20
2019-03-20T21:04:32.028Z,5.80
2019-03-20T21:07:01.585Z,6.07
2019-03-20T21:09:31.191Z,6.30
2019-03-20T21:12:00.756Z,5.50
2019-03-20T21:14:30.368Z,6.58
2019-03-20T21:17:00.363Z,6.20
2019-03-20T21:19:38.128Z,6.87
2019-03-20T21:22:57.440Z,6.12
2019-03-20T21:25:27.512Z,7.63
2019-03-20T21:28:21.293Z,6.97
2019-03-20T21:31:25.181Z,7.87
2019-03-20T21:34:31.357Z,6.87
2019-03-20T21:37:53.466Z,7.47
2019-03-20T21:40:24.355Z,7.97
2019-03-20T21:43:29.522Z,8.60
2019-03-20T21:46:35.423Z,8.20
2019-03-20T21:49:05.586Z,7.40
2019-03-20T21:51:35.698Z,8.70
2019-03-20T21:54:44.014Z,6.33
2019-03-20T21:58:03.975Z,8.53
2019-03-20T22:01:16.301Z,9.73
2019-03-20T22:03:46.453Z,7.87
2019-03-20T22:06:51.700Z,8.60
2019-03-20T22:10:14.644Z,7.50
2019-03-20T22:13:03.930Z,7.20
2019-03-20T22:16:09.917Z,9.50
2019-03-20T22:19:20.075Z,8.78
2019-03-20T22:22:19.457Z,8.07
2019-03-20T22:25:20.403Z,9.23
2019-03-20T22:28:39.813Z,7.75
2019-03-20T22:31:09.923Z,8.60
2019-03-20T22:34:15.067Z,8.43
2019-03-20T22:36:45.129Z,7.13
2019-03-20T22:40:02.482Z,9.27
2019-03-20T22:42:37.579Z,9.73
2019-03-20T22:45:51.111Z,9.47
2019-03-20T22:49:29.515Z,7.63
2019-03-20T22:52:14.330Z,8.60
2019-03-20T22:55:29.886Z,10.17
2019-03-20T22:58:30.414Z,11.67
2019-03-20T23:01:00.780Z,8.77
2019-03-20T23:03:43.651Z,12.60
2019-03-20T23:06:13.719Z,12.37
2019-03-20T23:08:43.765Z,10.77
2019-03-20T23:11:13.870Z,11.12
2019-03-20T23:13:43.867Z,9.70
2019-03-20T23:16:15.170Z,10.45
2019-03-20T23:18:45.202Z,12.85
2019-03-20T23:21:15.199Z,11.60
2019-03-20T23:23:45.239Z,11.03
2019-03-20T23:26:15.263Z,10.57
2019-03-20T23:28:45.303Z,11.23
2019-03-20T23:31:15.311Z,10.33
2019-03-20T23:33:45.368Z,11.60
2019-03-20T23:36:15.354Z,11.07
2019-03-20T23:38:45.391Z,13.20
2019-03-20T23:41:15.438Z,13.73
2019-03-20T23:43:52.826Z,13.37
2019-03-20T23:46:17.119Z,13.77
2019-03-20T23:48:54.412Z,12.43
2019-03-20T23:51:25.276Z,14.67
2019-03-20T23:53:56.294Z,15.83
2019-03-20T23:56:27.906Z,16.17
2019-03-20T23:58:57.921Z,13.87
